createdAt,value
2018-05-06T00:01:51.991Z,20.70
2018-05-06T00:04:18.813Z,20.60
2018-05-06T00:06:46.328Z,20.60
2018-05-06T00:09:13.155Z,20.60
2018-05-06T00:11:40.089Z,20.60
2018-05-06T00:14:06.967Z,20.60
2018-05-06T00:16:33.850Z,20.60
2018-05-06T00:19:01.425Z,20.60
2018-05-06T00:21:28.236Z,20.60
2018-05-06T00:23:55.039Z,20.60
2018-05-06T00:26:21.919Z,20.60
2018-05-06T00:28:48.696Z,20.50
2018-05-06T00:31:15.510Z,20.50
2018-05-06T00:33:42.439Z,20.60
2018-05-06T00:36:09.323Z,20.60
2018-05-06T00:38:36.888Z,20.50
2018-05-06T00:41:04.524Z,20.50
2018-05-06T00:43:31.296Z,20.50
2018-05-06T00:45:59.412Z,20.50
2018-05-06T00:48:26.271Z,20.50
2018-05-06T00:50:53.104Z,20.50
2018-05-06T00:53:19.949Z,20.50
2018-05-06T00:55:46.802Z,20.50
2018-05-06T00:58:13.556Z,20.50
2018-05-06T01:00:40.409Z,20.50
2018-05-06T01:03:07.363Z,20.50
2018-05-06T01:05:34.194Z,20.50
2018-05-06T01:08:00.947Z,20.50
2018-05-06T01:10:28.581Z,20.40
2018-05-06T01:12:55.328Z,20.40
2018-05-06T01:15:22.313Z,20.40
2018-05-06T01:17:49.983Z,20.40
2018-05-06T01:20:17.694Z,20.30
2018-05-06T01:22:44.651Z,20.30
2018-05-06T01:25:11.469Z,20.30
2018-05-06T01:27:38.284Z,20.30
2018-05-06T01:30:05.894Z,20.30
2018-05-06T01:32:32.712Z,20.30
2018-05-06T01:34:59.548Z,20.30
2018-05-06T01:37:27.108Z,20.30
2018-05-06T01:39:53.899Z,20.30
2018-05-06T01:42:20.782Z,20.30
2018-05-06T01:44:48.384Z,20.30
2018-05-06T01:47:15.251Z,20.20
2018-05-06T01:49:42.020Z,20.30
2018-05-06T01:52:08.865Z,20.20
2018-05-06T01:54:35.728Z,20.20
2018-05-06T01:57:03.315Z,20.20
2018-05-06T01:59:30.186Z,20.20
2018-05-06T02:01:57.038Z,20.20
2018-05-06T02:04:23.893Z,20.20
2018-05-06T02:06:50.766Z,20.20
2018-05-06T02:09:18.334Z,20.10
2018-05-06T02:11:45.983Z,20.20
2018-05-06T02:14:12.766Z,20.20
2018-05-06T02:16:39.585Z,20.10
2018-05-06T02:19:07.220Z,20.20
2018-05-06T02:21:34.079Z,20.10
2018-05-06T02:24:00.886Z,20.20
2018-05-06T02:26:27.677Z,20.10
2018-05-06T02:28:55.279Z,20.10
2018-05-06T02:31:22.132Z,20.10
2018-05-06T02:33:48.996Z,20.10
2018-05-06T02:36:15.844Z,20.10
2018-05-06T02:38:42.602Z,20.10
2018-05-06T02:41:09.424Z,20.10
2018-05-06T02:43:36.232Z,20.20
2018-05-06T02:46:17.948Z,20.10
2018-05-06T02:48:44.688Z,20.10
2018-05-06T02:51:11.516Z,20.10
2018-05-06T02:53:38.288Z,20.10
2018-05-06T02:56:05.149Z,20.10
2018-05-06T02:58:31.949Z,20.00
2018-05-06T03:00:59.620Z,20.00
2018-05-06T03:03:26.407Z,19.90
2018-05-06T03:05:53.318Z,20.00
2018-05-06T03:08:20.100Z,20.00
2018-05-06T03:10:46.891Z,20.00
2018-05-06T03:13:13.740Z,20.00
2018-05-06T03:15:40.543Z,20.00
2018-05-06T03:18:08.195Z,20.00
2018-05-06T03:20:35.800Z,19.80
2018-05-06T03:23:02.667Z,19.80
2018-05-06T03:25:29.480Z,19.90
2018-05-06T03:27:57.047Z,19.90
2018-05-06T03:30:24.551Z,19.90
2018-05-06T03:32:51.304Z,19.80
2018-05-06T03:35:18.187Z,19.80
2018-05-06T03:37:45.699Z,19.80
2018-05-06T03:40:12.645Z,19.80
2018-05-06T03:42:39.499Z,19.80
2018-05-06T03:45:06.375Z,19.80
2018-05-06T03:47:33.856Z,19.80
2018-05-06T03:50:00.722Z,19.80
2018-05-06T03:52:27.603Z,19.80
2018-05-06T03:54:54.419Z,19.80
2018-05-06T03:57:33.341Z,19.90
2018-05-06T04:00:12.152Z,19.90
2018-05-06T04:02:39.026Z,19.90
2018-05-06T04:05:05.879Z,19.90
2018-05-06T04:07:32.736Z,19.90
2018-05-06T04:09:59.545Z,19.90
2018-05-06T04:12:26.387Z,19.90
2018-05-06T04:14:53.256Z,19.90
2018-05-06T04:17:20.139Z,19.90
2018-05-06T04:19:47.646Z,19.70
2018-05-06T04:22:14.490Z,19.70
2018-05-06T04:24:41.308Z,19.70
2018-05-06T04:27:08.248Z,19.70
2018-05-06T04:29:35.031Z,19.70
2018-05-06T04:32:01.870Z,19.70
2018-05-06T04:34:28.771Z,19.70
2018-05-06T04:36:56.308Z,19.70
2018-05-06T04:39:23.207Z,19.60
2018-05-06T04:41:49.981Z,19.70
2018-05-06T04:44:16.720Z,19.70
2018-05-06T04:46:43.611Z,19.70
2018-05-06T04:49:11.167Z,19.70
2018-05-06T04:51:38.669Z,19.70
2018-05-06T04:54:05.459Z,19.70
2018-05-06T04:56:32.372Z,19.70
2018-05-06T04:58:59.156Z,19.70
2018-05-06T05:01:26.680Z,19.70
2018-05-06T05:03:53.576Z,19.60
2018-05-06T05:06:20.420Z,19.70
2018-05-06T05:08:48.079Z,19.70
2018-05-06T05:11:15.648Z,19.70
2018-05-06T05:13:43.186Z,19.70
2018-05-06T05:16:10.795Z,19.70
2018-05-06T05:18:37.664Z,19.70
2018-05-06T05:21:04.587Z,19.70
2018-05-06T05:23:31.387Z,19.70
2018-05-06T05:26:00.070Z,19.70
2018-05-06T05:28:26.860Z,19.70
2018-05-06T05:30:53.630Z,19.80
2018-05-06T05:33:20.464Z,19.80
2018-05-06T05:35:47.398Z,19.80
2018-05-06T05:38:14.977Z,19.80
2018-05-06T05:40:41.766Z,19.80
2018-05-06T05:43:09.264Z,19.70
2018-05-06T05:45:36.132Z,19.70
2018-05-06T05:48:03.038Z,19.70
2018-05-06T05:50:29.907Z,19.70
2018-05-06T05:52:56.815Z,19.80
2018-05-06T05:55:24.583Z,19.80
2018-05-06T05:57:52.213Z,19.80
2018-05-06T06:00:24.428Z,19.80
2018-05-06T06:02:51.328Z,19.80
2018-05-06T06:05:18.099Z,19.80
2018-05-06T06:07:45.775Z,19.80
2018-05-06T06:10:13.368Z,19.70
2018-05-06T06:12:40.189Z,19.70
2018-05-06T06:15:07.719Z,19.80
2018-05-06T06:17:35.288Z,19.80
2018-05-06T06:20:02.075Z,19.80
2018-05-06T06:22:28.948Z,19.80
2018-05-06T06:24:55.811Z,19.80
2018-05-06T06:27:23.437Z,19.90
2018-05-06T06:29:50.195Z,19.80
2018-05-06T06:32:16.920Z,19.90
2018-05-06T06:34:43.794Z,20.00
2018-05-06T06:37:10.649Z,19.90
2018-05-06T06:39:37.548Z,20.10
2018-05-06T06:42:04.427Z,20.00
2018-05-06T06:44:31.266Z,20.10
2018-05-06T06:46:58.100Z,20.10
2018-05-06T06:49:24.955Z,20.20
2018-05-06T06:51:51.976Z,20.20
2018-05-06T06:54:18.765Z,20.20
2018-05-06T06:56:45.612Z,20.20
2018-05-06T06:59:12.388Z,20.20
2018-05-06T07:01:39.219Z,20.30
2018-05-06T07:04:06.737Z,20.30
2018-05-06T07:06:34.653Z,20.30
2018-05-06T07:09:01.405Z,20.30
2018-05-06T07:11:29.020Z,20.40
2018-05-06T07:13:55.895Z,20.40
2018-05-06T07:16:23.615Z,20.40
2018-05-06T07:18:50.353Z,20.40
2018-05-06T07:21:17.097Z,20.40
2018-05-06T07:23:43.853Z,20.40
2018-05-06T07:26:10.584Z,20.50
2018-05-06T07:28:37.483Z,20.50
2018-05-06T07:31:05.055Z,20.60
2018-05-06T07:33:31.920Z,20.60
2018-05-06T07:36:00.164Z,20.70
2018-05-06T07:38:27.932Z,20.70
2018-05-06T07:40:55.519Z,20.80
2018-05-06T07:43:22.364Z,20.70
2018-05-06T07:45:49.242Z,20.80
2018-05-06T07:48:16.103Z,20.80
2018-05-06T07:50:42.918Z,20.80
2018-05-06T07:53:09.765Z,20.80
2018-05-06T07:55:36.633Z,20.90
2018-05-06T07:58:03.447Z,20.90
2018-05-06T08:00:30.267Z,20.80
2018-05-06T08:02:57.069Z,20.80
2018-05-06T08:05:24.078Z,20.80
2018-05-06T08:07:50.975Z,20.80
2018-05-06T08:10:17.805Z,20.80
2018-05-06T08:12:44.675Z,20.90
2018-05-06T08:15:12.254Z,20.90
2018-05-06T08:17:39.881Z,20.90
2018-05-06T08:20:06.747Z,20.90
2018-05-06T08:22:34.265Z,21.00
2018-05-06T08:25:01.134Z,21.00
2018-05-06T08:27:27.979Z,21.00
2018-05-06T08:29:54.866Z,21.10
2018-05-06T08:32:21.688Z,21.10
2018-05-06T08:34:49.185Z,21.20
2018-05-06T08:37:15.991Z,21.20
2018-05-06T08:39:43.553Z,21.20
2018-05-06T08:42:11.132Z,21.20
2018-05-06T08:44:37.999Z,21.20
2018-05-06T08:47:04.856Z,21.20
2018-05-06T08:49:31.778Z,21.10
2018-05-06T08:51:58.607Z,21.10
2018-05-06T08:54:26.136Z,21.10
2018-05-06T08:56:52.984Z,21.10
2018-05-06T08:59:19.911Z,21.10
2018-05-06T09:01:46.744Z,21.10
2018-05-06T09:04:13.540Z,21.10
2018-05-06T09:06:41.133Z,21.20
2018-05-06T09:09:08.106Z,21.20
2018-05-06T09:11:34.917Z,21.20
2018-05-06T09:14:01.729Z,21.20
2018-05-06T09:16:28.593Z,21.30
2018-05-06T09:18:56.148Z,21.40
2018-05-06T09:21:23.625Z,21.30
2018-05-06T09:23:51.195Z,21.40
2018-05-06T09:26:18.043Z,21.30
2018-05-06T09:28:44.893Z,21.40
2018-05-06T09:31:11.726Z,21.40
2018-05-06T09:33:38.559Z,21.40
2018-05-06T09:36:06.071Z,21.30
2018-05-06T09:38:32.887Z,21.30
2018-05-06T09:41:00.259Z,21.30
2018-05-06T09:43:27.025Z,21.30
2018-05-06T09:45:53.896Z,21.40
2018-05-06T09:48:21.531Z,21.30
2018-05-06T09:50:48.420Z,21.30
2018-05-06T09:53:16.074Z,21.30
2018-05-06T09:55:43.776Z,21.30
2018-05-06T09:58:10.549Z,21.30
2018-05-06T10:00:37.429Z,21.30
2018-05-06T10:03:04.260Z,21.30
2018-05-06T10:05:31.813Z,21.40
2018-05-06T10:07:58.659Z,21.30
2018-05-06T10:10:25.516Z,21.40
2018-05-06T10:12:53.091Z,21.40
2018-05-06T10:15:34.458Z,21.40
2018-05-06T10:18:02.027Z,21.40
2018-05-06T10:20:29.823Z,21.40
2018-05-06T10:22:56.699Z,21.40
2018-05-06T10:25:23.445Z,21.50
2018-05-06T10:27:50.230Z,21.50
2018-05-06T10:30:17.935Z,21.50
2018-05-06T10:32:44.754Z,21.50
2018-05-06T10:35:11.616Z,21.60
2018-05-06T10:37:38.528Z,21.70
2018-05-06T10:40:06.063Z,22.00
2018-05-06T10:42:32.953Z,22.00
2018-05-06T10:45:00.516Z,22.40
2018-05-06T10:47:27.281Z,22.40
2018-05-06T10:49:54.211Z,22.50
2018-05-06T10:52:21.053Z,22.50
2018-05-06T10:54:47.851Z,22.50
2018-05-06T10:57:14.632Z,22.50
2018-05-06T10:59:42.349Z,22.40
2018-05-06T11:02:09.184Z,22.40
2018-05-06T11:04:35.949Z,22.40
2018-05-06T11:07:02.836Z,22.40
2018-05-06T11:09:29.649Z,22.40
2018-05-06T11:11:57.296Z,22.30
2018-05-06T11:14:55.851Z,22.30
2018-05-06T11:17:22.763Z,22.30
2018-05-06T11:19:50.361Z,22.20
2018-05-06T11:22:17.247Z,22.20
2018-05-06T11:24:44.105Z,22.20
2018-05-06T11:27:11.739Z,22.20
2018-05-06T11:29:38.511Z,22.10
2018-05-06T11:32:06.117Z,22.10
2018-05-06T11:34:32.985Z,22.10
2018-05-06T11:36:59.891Z,22.10
2018-05-06T11:39:26.688Z,22.10
2018-05-06T11:41:53.533Z,22.10
2018-05-06T11:44:20.375Z,22.10
2018-05-06T11:46:47.323Z,22.10
2018-05-06T11:49:14.207Z,22.10
2018-05-06T11:51:41.839Z,22.00
2018-05-06T11:54:08.692Z,22.00
2018-05-06T11:56:35.448Z,22.00
2018-05-06T11:59:03.016Z,21.90
2018-05-06T12:01:30.596Z,22.00
2018-05-06T12:03:57.336Z,22.00
2018-05-06T12:06:24.092Z,22.00
2018-05-06T12:08:50.983Z,22.00
2018-05-06T12:11:18.854Z,22.10
2018-05-06T12:13:46.323Z,22.10
2018-05-06T12:16:13.100Z,22.10
2018-05-06T12:18:39.948Z,22.10
2018-05-06T12:21:06.757Z,22.10
2018-05-06T12:23:34.399Z,22.00
2018-05-06T12:26:01.101Z,22.00
2018-05-06T12:28:27.951Z,22.00
2018-05-06T12:30:54.925Z,22.00
2018-05-06T12:33:21.799Z,22.00
2018-05-06T12:35:49.405Z,22.10
2018-05-06T12:38:16.260Z,22.10
2018-05-06T12:40:43.120Z,22.10
2018-05-06T12:43:09.931Z,22.10
2018-05-06T12:45:36.860Z,22.20
2018-05-06T12:48:03.736Z,22.20
2018-05-06T12:50:30.597Z,22.30
2018-05-06T12:52:57.425Z,22.40
2018-05-06T12:55:24.349Z,22.40
2018-05-06T12:57:51.955Z,22.50
2018-05-06T13:00:18.807Z,22.50
2018-05-06T13:02:45.638Z,22.50
2018-05-06T13:05:12.534Z,22.50
2018-05-06T13:07:40.064Z,22.60
2018-05-06T13:10:06.924Z,22.60
2018-05-06T13:12:34.497Z,22.70
2018-05-06T13:15:30.622Z,22.70
2018-05-06T13:18:01.364Z,22.80
2018-05-06T13:20:29.551Z,22.90
2018-05-06T13:22:57.067Z,23.00
2018-05-06T13:25:23.863Z,23.00
2018-05-06T13:27:50.616Z,23.10
2018-05-06T13:30:17.424Z,23.10
2018-05-06T13:32:44.344Z,23.10
2018-05-06T13:35:11.272Z,23.10
2018-05-06T13:37:38.172Z,23.20
2018-05-06T13:40:05.715Z,23.30
2018-05-06T13:42:32.539Z,23.30
2018-05-06T13:44:59.407Z,23.40
2018-05-06T13:47:26.351Z,23.50
2018-05-06T13:49:53.221Z,23.60
2018-05-06T13:52:19.989Z,23.70
2018-05-06T13:54:46.749Z,23.80
2018-05-06T13:57:13.527Z,23.90
2018-05-06T13:59:40.353Z,24.00
2018-05-06T14:02:07.272Z,23.90
2018-05-06T14:04:34.197Z,23.90
2018-05-06T14:07:01.822Z,23.90
2018-05-06T14:09:28.582Z,23.90
2018-05-06T14:11:56.158Z,23.90
2018-05-06T14:14:50.931Z,23.90
2018-05-06T14:17:17.779Z,23.90
2018-05-06T14:19:44.646Z,23.90
2018-05-06T14:22:12.219Z,23.90
2018-05-06T14:24:39.852Z,23.90
2018-05-06T14:27:06.644Z,23.90
2018-05-06T14:29:33.587Z,23.90
2018-05-06T14:32:00.482Z,23.90
2018-05-06T14:34:27.242Z,24.00
2018-05-06T14:36:54.087Z,24.10
2018-05-06T14:39:21.700Z,24.00
2018-05-06T14:41:48.580Z,24.00
2018-05-06T14:44:15.418Z,24.00
2018-05-06T14:46:54.364Z,24.00
2018-05-06T14:49:21.944Z,24.10
2018-05-06T14:51:49.571Z,24.10
2018-05-06T14:54:16.423Z,24.10
2018-05-06T14:56:43.299Z,24.20
2018-05-06T14:59:10.864Z,24.20
2018-05-06T15:01:37.703Z,24.20
2018-05-06T15:04:05.230Z,24.20
2018-05-06T15:06:32.068Z,24.30
2018-05-06T15:08:58.825Z,24.30
2018-05-06T15:11:25.676Z,24.30
2018-05-06T15:13:53.337Z,24.30
2018-05-06T15:16:35.848Z,24.20
2018-05-06T15:19:02.722Z,24.20
2018-05-06T15:21:30.283Z,24.20
2018-05-06T15:23:57.795Z,24.10
2018-05-06T15:26:24.600Z,24.10
2018-05-06T15:28:51.518Z,24.10
2018-05-06T15:31:19.144Z,24.10
2018-05-06T15:33:46.141Z,24.10
2018-05-06T15:36:13.651Z,24.10
2018-05-06T15:38:40.473Z,24.10
2018-05-06T15:41:07.402Z,24.10
2018-05-06T15:43:34.210Z,24.10
2018-05-06T15:46:01.105Z,24.20
2018-05-06T15:48:28.002Z,24.20
2018-05-06T15:50:54.881Z,24.20
2018-05-06T15:53:22.779Z,24.20
2018-05-06T15:55:49.623Z,24.20
2018-05-06T15:58:16.452Z,24.20
2018-05-06T16:00:43.280Z,24.20
2018-05-06T16:03:22.890Z,24.20
2018-05-06T16:05:49.688Z,24.20
2018-05-06T16:08:16.467Z,24.20
2018-05-06T16:10:43.252Z,24.20
2018-05-06T16:13:10.832Z,24.20
2018-05-06T16:18:47.958Z,24.10
2018-05-06T16:21:14.860Z,24.00
2018-05-06T16:23:42.406Z,24.00
2018-05-06T16:26:09.238Z,24.00
2018-05-06T16:28:36.191Z,23.90
2018-05-06T16:31:03.005Z,23.90
2018-05-06T16:33:29.883Z,23.90
2018-05-06T16:35:56.651Z,23.90
2018-05-06T16:38:24.287Z,23.90
2018-05-06T16:40:51.045Z,23.90
2018-05-06T16:43:17.870Z,23.90
2018-05-06T16:45:44.869Z,23.90
2018-05-06T16:48:11.663Z,23.90
2018-05-06T16:50:38.497Z,23.80
2018-05-06T16:53:05.284Z,23.80
2018-05-06T16:55:32.909Z,23.80
2018-05-06T16:57:59.796Z,23.80
2018-05-06T17:00:27.769Z,23.70
2018-05-06T17:02:55.265Z,23.60
2018-05-06T17:05:22.255Z,23.60
2018-05-06T17:07:49.857Z,23.60
2018-05-06T17:10:17.133Z,23.60
2018-05-06T17:12:43.991Z,23.50
2018-05-06T17:15:43.911Z,23.50
2018-05-06T17:18:11.031Z,23.50
2018-05-06T17:20:39.024Z,23.50
2018-05-06T17:23:07.414Z,23.40
2018-05-06T17:25:34.879Z,23.40
2018-05-06T17:28:01.806Z,23.40
2018-05-06T17:30:29.703Z,23.40
2018-05-06T17:32:56.569Z,23.40
2018-05-06T17:35:23.386Z,23.40
2018-05-06T17:37:50.201Z,23.30
2018-05-06T17:40:17.141Z,23.30
2018-05-06T17:42:44.136Z,23.30
2018-05-06T17:45:10.834Z,23.30
2018-05-06T17:47:37.709Z,23.20
2018-05-06T17:50:05.207Z,23.20
2018-05-06T17:52:32.707Z,23.20
2018-05-06T17:54:59.657Z,23.10
2018-05-06T17:57:26.651Z,23.10
2018-05-06T17:59:53.518Z,23.00
2018-05-06T18:02:21.144Z,22.90
2018-05-06T18:04:48.712Z,22.90
2018-05-06T18:07:16.321Z,22.90
2018-05-06T18:09:43.220Z,22.90
2018-05-06T18:12:10.166Z,22.90
2018-05-06T18:14:55.541Z,22.80
2018-05-06T18:17:22.398Z,22.80
2018-05-06T18:19:49.254Z,22.70
2018-05-06T18:22:16.898Z,22.60
2018-05-06T18:24:43.846Z,22.70
2018-05-06T18:27:10.674Z,22.60
2018-05-06T18:29:37.529Z,22.60
2018-05-06T18:32:04.539Z,22.50
2018-05-06T18:34:31.352Z,22.50
2018-05-06T18:36:58.947Z,22.50
2018-05-06T18:39:25.773Z,22.40
2018-05-06T18:41:52.530Z,22.40
2018-05-06T18:44:19.389Z,22.30
2018-05-06T18:46:46.257Z,22.30
2018-05-06T18:49:13.877Z,22.20
2018-05-06T18:51:40.793Z,22.20
2018-05-06T18:54:08.373Z,22.20
2018-05-06T18:56:35.975Z,22.20
2018-05-06T18:59:02.746Z,22.20
2018-05-06T19:01:30.277Z,22.10
2018-05-06T19:03:57.142Z,22.10
2018-05-06T19:06:24.792Z,22.00
2018-05-06T19:08:51.638Z,22.00
2018-05-06T19:11:20.277Z,22.00
2018-05-06T19:13:47.950Z,21.90
2018-05-06T19:19:27.276Z,21.90
2018-05-06T19:21:54.117Z,21.90
2018-05-06T19:24:20.964Z,21.80
2018-05-06T19:26:47.815Z,21.80
2018-05-06T19:29:14.617Z,21.70
2018-05-06T19:31:41.419Z,21.70
2018-05-06T19:34:08.952Z,21.70
2018-05-06T19:36:35.739Z,21.70
2018-05-06T19:39:02.689Z,21.60
2018-05-06T19:41:30.244Z,21.50
2018-05-06T19:43:57.036Z,21.60
2018-05-06T19:46:23.832Z,21.50
2018-05-06T19:48:50.701Z,21.50
2018-05-06T19:51:17.580Z,21.40
2018-05-06T19:53:44.428Z,21.40
2018-05-06T19:56:11.323Z,21.40
2018-05-06T19:58:38.185Z,21.40
2018-05-06T20:01:05.005Z,21.40
2018-05-06T20:03:32.615Z,21.30
2018-05-06T20:06:01.146Z,21.30
2018-05-06T20:08:28.787Z,21.20
2018-05-06T20:10:56.406Z,21.20
2018-05-06T20:13:23.233Z,21.20
2018-05-06T20:19:06.563Z,21.10
2018-05-06T20:21:39.433Z,21.10
2018-05-06T20:24:06.912Z,21.10
2018-05-06T20:29:34.172Z,21.00
2018-05-06T20:32:00.992Z,21.10
2018-05-06T20:34:28.410Z,21.00
2018-05-06T20:36:55.264Z,20.90
2018-05-06T20:39:22.121Z,21.00
2018-05-06T20:41:49.045Z,20.90
2018-05-06T20:44:15.864Z,20.90
2018-05-06T20:46:44.143Z,20.80
2018-05-06T20:49:11.687Z,20.80
2018-05-06T20:51:38.519Z,20.70
2018-05-06T20:54:05.308Z,20.80
2018-05-06T20:56:32.123Z,20.70
2018-05-06T20:59:07.320Z,20.70
2018-05-06T21:01:34.144Z,20.70
2018-05-06T21:04:01.040Z,20.70
2018-05-06T21:06:28.861Z,20.70
2018-05-06T21:08:55.759Z,20.70
2018-05-06T21:11:22.537Z,20.70
2018-05-06T21:13:50.210Z,20.70
2018-05-06T21:16:49.430Z,20.70
2018-05-06T21:19:16.280Z,20.60
2018-05-06T21:21:43.705Z,20.70
2018-05-06T21:24:11.284Z,20.60
2018-05-06T21:26:38.207Z,20.60
2018-05-06T21:29:05.696Z,20.60
2018-05-06T21:31:32.548Z,20.50
2018-05-06T21:33:59.379Z,20.60
2018-05-06T21:36:26.228Z,20.50
2018-05-06T21:38:54.571Z,20.50
2018-05-06T21:41:21.604Z,20.50
2018-05-06T21:43:48.429Z,20.40
2018-05-06T21:46:16.126Z,20.40
2018-05-06T21:48:43.064Z,20.40
2018-05-06T21:51:09.969Z,20.40
2018-05-06T21:53:37.597Z,20.40
2018-05-06T21:56:06.562Z,20.30
2018-05-06T21:58:34.192Z,20.30
2018-05-06T22:01:02.642Z,20.30
2018-05-06T22:03:31.141Z,20.20
2018-05-06T22:05:57.928Z,20.20
2018-05-06T22:08:24.687Z,20.20
2018-05-06T22:10:51.507Z,20.10
2018-05-06T22:13:19.230Z,20.10
2018-05-06T22:15:46.839Z,20.10
2018-05-06T22:18:13.759Z,20.00
2018-05-06T22:20:41.176Z,20.10
2018-05-06T22:23:09.179Z,20.10
2018-05-06T22:25:35.998Z,20.10
2018-05-06T22:28:06.640Z,20.00
2018-05-06T22:30:33.689Z,20.00
2018-05-06T22:33:01.287Z,20.00
2018-05-06T22:35:28.129Z,20.00
2018-05-06T22:37:54.940Z,20.00
2018-05-06T22:40:22.487Z,19.90
2018-05-06T22:42:50.058Z,19.90
2018-05-06T22:45:17.727Z,19.90
2018-05-06T22:47:45.320Z,19.80
2018-05-06T22:50:12.191Z,19.80
2018-05-06T22:52:39.067Z,19.80
2018-05-06T22:55:06.631Z,19.80
2018-05-06T22:57:34.283Z,19.70
2018-05-06T23:00:01.131Z,19.80
2018-05-06T23:02:28.015Z,19.70
2018-05-06T23:04:54.785Z,19.70
2018-05-06T23:07:21.630Z,19.60
2018-05-06T23:09:48.539Z,19.60
2018-05-06T23:12:15.318Z,19.70
2018-05-06T23:14:42.104Z,19.60
2018-05-06T23:17:09.942Z,19.60
2018-05-06T23:19:36.793Z,19.50
2018-05-06T23:22:03.596Z,19.60
2018-05-06T23:24:30.391Z,19.50
2018-05-06T23:26:57.129Z,19.50
2018-05-06T23:29:24.051Z,19.50
2018-05-06T23:31:50.895Z,19.60
2018-05-06T23:34:17.653Z,19.60
2018-05-06T23:36:44.459Z,19.60
2018-05-06T23:39:11.268Z,19.50
2018-05-06T23:41:38.851Z,19.50
2018-05-06T23:44:05.629Z,19.40
2018-05-06T23:46:32.551Z,19.40
2018-05-06T23:48:59.373Z,19.40
2018-05-06T23:51:27.027Z,19.40
2018-05-06T23:53:54.664Z,19.40
2018-05-06T23:56:21.551Z,19.30
2018-05-06T23:58:49.094Z,19.30
